sensor_id;sensor_type;location;lat;lon;timestamp;temperature;humidity
41547;DHT22;27271;45.412;10.852;2022-12-17T00:02:23;5.40;99.90
41547;DHT22;27271;45.412;10.852;2022-12-17T00:06:08;5.40;99.90
41547;DHT22;27271;45.412;10.852;2022-12-17T00:09:49;5.40;99.90
41547;DHT22;27271;45.412;10.852;2022-12-17T00:13:29;5.40;99.90
41547;DHT22;27271;45.412;10.852;2022-12-17T00:17:10;5.40;99.90
41547;DHT22;27271;45.412;10.852;2022-12-17T00:20:55;5.40;99.90
41547;DHT22;27271;45.412;10.852;2022-12-17T00:24:37;5.40;99.90
41547;DHT22;27271;45.412;10.852;2022-12-17T00:28:17;5.40;99.90
41547;DHT22;27271;45.412;10.852;2022-12-17T00:31:59;5.40;99.90
41547;DHT22;27271;45.412;10.852;2022-12-17T00:35:39;5.40;99.90
41547;DHT22;27271;45.412;10.852;2022-12-17T00:39:23;5.40;99.90
41547;DHT22;27271;45.412;10.852;2022-12-17T00:43:11;5.40;99.90
41547;DHT22;27271;45.412;10.852;2022-12-17T00:46:52;5.40;99.90
41547;DHT22;27271;45.412;10.852;2022-12-17T00:50:33;5.40;99.90
41547;DHT22;27271;45.412;10.852;2022-12-17T00:54:17;5.40;99.90
41547;DHT22;27271;45.412;10.852;2022-12-17T00:57:58;5.40;99.90
41547;DHT22;27271;45.412;10.852;2022-12-17T01:01:39;5.40;99.90
41547;DHT22;27271;45.412;10.852;2022-12-17T01:05:19;5.40;99.90
41547;DHT22;27271;45.412;10.852;2022-12-17T01:09:02;5.30;99.90
41547;DHT22;27271;45.412;10.852;2022-12-17T01:12:56;5.20;99.90
41547;DHT22;27271;45.412;10.852;2022-12-17T01:16:37;5.20;99.90
41547;DHT22;27271;45.412;10.852;2022-12-17T01:20:18;5.20;99.90
41547;DHT22;27271;45.412;10.852;2022-12-17T01:23:58;5.20;99.90
41547;DHT22;27271;45.412;10.852;2022-12-17T01:27:39;5.20;99.90
41547;DHT22;27271;45.412;10.852;2022-12-17T01:31:20;5.20;99.90
41547;DHT22;27271;45.412;10.852;2022-12-17T01:35:01;5.30;99.90
41547;DHT22;27271;45.412;10.852;2022-12-17T01:38:42;5.30;99.90
41547;DHT22;27271;45.412;10.852;2022-12-17T01:42:23;5.30;99.90
41547;DHT22;27271;45.412;10.852;2022-12-17T01:46:07;5.40;99.90
41547;DHT22;27271;45.412;10.852;2022-12-17T01:49:50;5.40;99.90
41547;DHT22;27271;45.412;10.852;2022-12-17T01:53:34;5.40;99.90
41547;DHT22;27271;45.412;10.852;2022-12-17T01:57:18;5.40;99.90
41547;DHT22;27271;45.412;10.852;2022-12-17T02:01:00;5.40;99.90
41547;DHT22;27271;45.412;10.852;2022-12-17T02:04:41;5.40;99.90
41547;DHT22;27271;45.412;10.852;2022-12-17T02:12:24;5.30;99.90
41547;DHT22;27271;45.412;10.852;2022-12-17T02:27:45;5.30;99.90
41547;DHT22;27271;45.412;10.852;2022-12-17T02:31:26;5.30;99.90
41547;DHT22;27271;45.412;10.852;2022-12-17T02:35:19;5.30;99.90
41547;DHT22;27271;45.412;10.852;2022-12-17T02:39:01;5.30;99.90
41547;DHT22;27271;45.412;10.852;2022-12-17T02:42:42;5.30;99.90
41547;DHT22;27271;45.412;10.852;2022-12-17T02:46:25;5.30;99.90
41547;DHT22;27271;45.412;10.852;2022-12-17T02:50:07;5.30;99.90
41547;DHT22;27271;45.412;10.852;2022-12-17T02:53:52;5.30;99.90
41547;DHT22;27271;45.412;10.852;2022-12-17T02:57:33;5.30;99.90
41547;DHT22;27271;45.412;10.852;2022-12-17T03:01:15;5.20;99.90
41547;DHT22;27271;45.412;10.852;2022-12-17T03:04:59;5.20;99.90
41547;DHT22;27271;45.412;10.852;2022-12-17T03:08:59;5.20;99.90
41547;DHT22;27271;45.412;10.852;2022-12-17T03:12:40;5.20;99.90
41547;DHT22;27271;45.412;10.852;2022-12-17T03:16:20;5.10;99.90
41547;DHT22;27271;45.412;10.852;2022-12-17T03:20:01;5.10;99.90
41547;DHT22;27271;45.412;10.852;2022-12-17T03:23:42;5.10;99.90
41547;DHT22;27271;45.412;10.852;2022-12-17T03:27:23;5.10;99.90
41547;DHT22;27271;45.412;10.852;2022-12-17T03:31:04;5.00;99.90
41547;DHT22;27271;45.412;10.852;2022-12-17T03:34:44;5.10;99.90
41547;DHT22;27271;45.412;10.852;2022-12-17T03:38:25;5.10;99.90
41547;DHT22;27271;45.412;10.852;2022-12-17T03:42:06;5.10;99.90
41547;DHT22;27271;45.412;10.852;2022-12-17T03:45:53;5.10;99.90
41547;DHT22;27271;45.412;10.852;2022-12-17T03:49:34;5.10;99.90
41547;DHT22;27271;45.412;10.852;2022-12-17T03:53:15;5.10;99.90
41547;DHT22;27271;45.412;10.852;2022-12-17T03:56:56;5.10;99.90
41547;DHT22;27271;45.412;10.852;2022-12-17T04:00:37;5.00;99.90
41547;DHT22;27271;45.412;10.852;2022-12-17T04:04:17;5.00;99.90
41547;DHT22;27271;45.412;10.852;2022-12-17T04:07:58;4.90;99.90
41547;DHT22;27271;45.412;10.852;2022-12-17T04:11:38;4.90;99.90
41547;DHT22;27271;45.412;10.852;2022-12-17T04:15:19;4.90;99.90
41547;DHT22;27271;45.412;10.852;2022-12-17T04:19:00;5.00;99.90
41547;DHT22;27271;45.412;10.852;2022-12-17T04:22:41;5.00;99.90
41547;DHT22;27271;45.412;10.852;2022-12-17T04:26:22;5.00;99.90
41547;DHT22;27271;45.412;10.852;2022-12-17T04:30:02;5.00;99.90
41547;DHT22;27271;45.412;10.852;2022-12-17T04:33:43;5.00;99.90
41547;DHT22;27271;45.412;10.852;2022-12-17T04:37:26;5.00;99.90
41547;DHT22;27271;45.412;10.852;2022-12-17T04:41:07;4.90;99.90
41547;DHT22;27271;45.412;10.852;2022-12-17T04:44:48;4.90;99.90
41547;DHT22;27271;45.412;10.852;2022-12-17T04:48:29;4.90;99.90
41547;DHT22;27271;45.412;10.852;2022-12-17T04:52:10;4.90;99.90
41547;DHT22;27271;45.412;10.852;2022-12-17T04:55:52;4.90;99.90
41547;DHT22;27271;45.412;10.852;2022-12-17T04:59:33;4.80;99.90
41547;DHT22;27271;45.412;10.852;2022-12-17T05:03:15;4.70;99.90
41547;DHT22;27271;45.412;10.852;2022-12-17T05:06:56;4.60;99.90
41547;DHT22;27271;45.412;10.852;2022-12-17T05:10:37;4.40;99.90
41547;DHT22;27271;45.412;10.852;2022-12-17T05:14:18;4.30;99.90
41547;DHT22;27271;45.412;10.852;2022-12-17T05:18:07;4.30;99.90
41547;DHT22;27271;45.412;10.852;2022-12-17T05:21:48;4.20;99.90
41547;DHT22;27271;45.412;10.852;2022-12-17T05:25:29;4.20;99.90
41547;DHT22;27271;45.412;10.852;2022-12-17T05:29:09;4.20;99.90
41547;DHT22;27271;45.412;10.852;2022-12-17T05:33:00;4.20;99.90
41547;DHT22;27271;45.412;10.852;2022-12-17T05:36:41;4.20;99.90
41547;DHT22;27271;45.412;10.852;2022-12-17T05:40:22;4.20;99.90
41547;DHT22;27271;45.412;10.852;2022-12-17T05:44:00;4.20;99.90
41547;DHT22;27271;45.412;10.852;2022-12-17T05:47:37;4.30;99.90
41547;DHT22;27271;45.412;10.852;2022-12-17T05:51:19;4.30;99.90
41547;DHT22;27271;45.412;10.852;2022-12-17T05:55:00;4.20;99.90
41547;DHT22;27271;45.412;10.852;2022-12-17T05:58:40;4.20;99.90
41547;DHT22;27271;45.412;10.852;2022-12-17T06:02:21;4.20;99.90
41547;DHT22;27271;45.412;10.852;2022-12-17T06:06:02;4.10;99.90
41547;DHT22;27271;45.412;10.852;2022-12-17T06:09:43;4.10;99.90
41547;DHT22;27271;45.412;10.852;2022-12-17T06:13:23;4.00;99.90
41547;DHT22;27271;45.412;10.852;2022-12-17T06:17:04;4.00;99.90
41547;DHT22;27271;45.412;10.852;2022-12-17T06:20:44;4.00;99.90
41547;DHT22;27271;45.412;10.852;2022-12-17T06:24:25;4.00;99.90
41547;DHT22;27271;45.412;10.852;2022-12-17T06:28:07;4.00;99.90
41547;DHT22;27271;45.412;10.852;2022-12-17T06:31:50;4.10;99.90
41547;DHT22;27271;45.412;10.852;2022-12-17T06:35:31;4.10;99.90
41547;DHT22;27271;45.412;10.852;2022-12-17T06:39:12;4.20;99.90
41547;DHT22;27271;45.412;10.852;2022-12-17T06:42:53;4.20;99.90
41547;DHT22;27271;45.412;10.852;2022-12-17T06:46:34;4.20;99.90
41547;DHT22;27271;45.412;10.852;2022-12-17T06:50:16;4.20;99.90
41547;DHT22;27271;45.412;10.852;2022-12-17T06:53:57;4.20;99.90
41547;DHT22;27271;45.412;10.852;2022-12-17T06:57:38;4.20;99.90
41547;DHT22;27271;45.412;10.852;2022-12-17T07:01:18;4.20;99.90
41547;DHT22;27271;45.412;10.852;2022-12-17T07:04:59;4.20;99.90
41547;DHT22;27271;45.412;10.852;2022-12-17T07:08:40;4.20;99.90
41547;DHT22;27271;45.412;10.852;2022-12-17T07:12:20;4.20;99.90
41547;DHT22;27271;45.412;10.852;2022-12-17T07:16:01;4.10;99.90
41547;DHT22;27271;45.412;10.852;2022-12-17T07:19:42;4.10;99.90
41547;DHT22;27271;45.412;10.852;2022-12-17T07:23:22;4.00;99.90
41547;DHT22;27271;45.412;10.852;2022-12-17T07:27:03;4.00;99.90
41547;DHT22;27271;45.412;10.852;2022-12-17T07:30:45;4.00;99.90
41547;DHT22;27271;45.412;10.852;2022-12-17T07:34:25;4.00;99.90
41547;DHT22;27271;45.412;10.852;2022-12-17T07:38:07;4.10;99.90
41547;DHT22;27271;45.412;10.852;2022-12-17T07:41:49;4.20;99.90
41547;DHT22;27271;45.412;10.852;2022-12-17T07:45:30;4.30;99.90
41547;DHT22;27271;45.412;10.852;2022-12-17T07:49:11;4.40;99.90
41547;DHT22;27271;45.412;10.852;2022-12-17T07:53:01;4.50;99.90
41547;DHT22;27271;45.412;10.852;2022-12-17T07:56:42;4.60;99.90
41547;DHT22;27271;45.412;10.852;2022-12-17T08:00:23;4.60;99.90
41547;DHT22;27271;45.412;10.852;2022-12-17T08:04:10;4.70;99.90
41547;DHT22;27271;45.412;10.852;2022-12-17T08:07:50;4.90;99.90
41547;DHT22;27271;45.412;10.852;2022-12-17T08:11:30;5.00;99.90
41547;DHT22;27271;45.412;10.852;2022-12-17T08:18:57;4.80;99.90
41547;DHT22;27271;45.412;10.852;2022-12-17T08:22:35;4.80;99.90
41547;DHT22;27271;45.412;10.852;2022-12-17T08:30:10;5.00;99.90
41547;DHT22;27271;45.412;10.852;2022-12-17T08:33:52;5.00;99.90
41547;DHT22;27271;45.412;10.852;2022-12-17T08:37:35;5.00;99.90
41547;DHT22;27271;45.412;10.852;2022-12-17T08:41:17;5.10;99.90
41547;DHT22;27271;45.412;10.852;2022-12-17T08:45:15;5.00;99.90
41547;DHT22;27271;45.412;10.852;2022-12-17T08:49:01;5.00;99.90
41547;DHT22;27271;45.412;10.852;2022-12-17T08:53:06;5.10;99.90
41547;DHT22;27271;45.412;10.852;2022-12-17T08:56:58;5.10;99.90
41547;DHT22;27271;45.412;10.852;2022-12-17T09:01:30;5.30;99.90
41547;DHT22;27271;45.412;10.852;2022-12-17T09:10:29;5.40;99.90
41547;DHT22;27271;45.412;10.852;2022-12-17T09:14:18;5.40;99.90
41547;DHT22;27271;45.412;10.852;2022-12-17T09:18:02;5.40;99.90
41547;DHT22;27271;45.412;10.852;2022-12-17T09:21:51;5.30;99.90
41547;DHT22;27271;45.412;10.852;2022-12-17T09:25:33;5.30;99.90
41547;DHT22;27271;45.412;10.852;2022-12-17T09:29:42;5.40;99.90
41547;DHT22;27271;45.412;10.852;2022-12-17T09:33:24;5.50;99.90
41547;DHT22;27271;45.412;10.852;2022-12-17T09:37:15;5.60;99.90
41547;DHT22;27271;45.412;10.852;2022-12-17T09:41:26;5.50;99.90
41547;DHT22;27271;45.412;10.852;2022-12-17T09:45:18;5.60;99.90
41547;DHT22;27271;45.412;10.852;2022-12-17T09:49:12;5.80;99.90
41547;DHT22;27271;45.412;10.852;2022-12-17T09:52:55;5.80;99.90
41547;DHT22;27271;45.412;10.852;2022-12-17T09:56:39;5.80;99.90
41547;DHT22;27271;45.412;10.852;2022-12-17T10:00:27;6.00;99.90
41547;DHT22;27271;45.412;10.852;2022-12-17T10:08:20;6.40;99.90
41547;DHT22;27271;45.412;10.852;2022-12-17T10:12:12;6.40;99.90
41547;DHT22;27271;45.412;10.852;2022-12-17T10:15:53;6.50;99.90
41547;DHT22;27271;45.412;10.852;2022-12-17T10:19:40;6.40;99.90
41547;DHT22;27271;45.412;10.852;2022-12-17T10:23:24;6.40;99.90
41547;DHT22;27271;45.412;10.852;2022-12-17T10:27:16;6.60;99.90
41547;DHT22;27271;45.412;10.852;2022-12-17T10:31:17;7.00;99.90
41547;DHT22;27271;45.412;10.852;2022-12-17T10:39:30;6.80;99.90
41547;DHT22;27271;45.412;10.852;2022-12-17T10:43:32;6.70;99.90
41547;DHT22;27271;45.412;10.852;2022-12-17T10:52:43;6.60;99.90
41547;DHT22;27271;45.412;10.852;2022-12-17T10:56:26;6.50;99.90
41547;DHT22;27271;45.412;10.852;2022-12-17T11:00:32;6.50;99.90
41547;DHT22;27271;45.412;10.852;2022-12-17T11:08:25;6.70;99.90
41547;DHT22;27271;45.412;10.852;2022-12-17T11:12:08;6.80;99.90
41547;DHT22;27271;45.412;10.852;2022-12-17T11:15:59;6.80;99.90
41547;DHT22;27271;45.412;10.852;2022-12-17T11:23:45;7.00;99.90
41547;DHT22;27271;45.412;10.852;2022-12-17T11:27:34;7.10;99.90
41547;DHT22;27271;45.412;10.852;2022-12-17T11:31:25;7.40;99.90
41547;DHT22;27271;45.412;10.852;2022-12-17T11:35:28;7.80;99.90
41547;DHT22;27271;45.412;10.852;2022-12-17T11:43:05;7.80;99.90
41547;DHT22;27271;45.412;10.852;2022-12-17T11:51:17;7.70;99.90
41547;DHT22;27271;45.412;10.852;2022-12-17T11:59:35;8.10;99.90
41547;DHT22;27271;45.412;10.852;2022-12-17T12:04:04;8.20;99.90
41547;DHT22;27271;45.412;10.852;2022-12-17T12:16:31;8.50;99.90
41547;DHT22;27271;45.412;10.852;2022-12-17T12:24:56;8.80;99.90
41547;DHT22;27271;45.412;10.852;2022-12-17T12:33:12;8.90;99.90
41547;DHT22;27271;45.412;10.852;2022-12-17T12:36:59;8.80;99.90
41547;DHT22;27271;45.412;10.852;2022-12-17T12:40:51;8.90;99.90
41547;DHT22;27271;45.412;10.852;2022-12-17T12:45:01;8.80;99.90
41547;DHT22;27271;45.412;10.852;2022-12-17T12:52:53;8.70;99.90
41547;DHT22;27271;45.412;10.852;2022-12-17T12:56:35;8.50;99.90
41547;DHT22;27271;45.412;10.852;2022-12-17T13:04:35;8.60;99.90
41547;DHT22;27271;45.412;10.852;2022-12-17T13:08:22;8.50;99.90
41547;DHT22;27271;45.412;10.852;2022-12-17T13:15:34;8.50;99.90
41547;DHT22;27271;45.412;10.852;2022-12-17T13:19:03;8.70;99.90
41547;DHT22;27271;45.412;10.852;2022-12-17T13:22:29;8.80;99.90
41547;DHT22;27271;45.412;10.852;2022-12-17T13:29:37;8.70;99.90
41547;DHT22;27271;45.412;10.852;2022-12-17T13:33:31;8.70;99.90
41547;DHT22;27271;45.412;10.852;2022-12-17T13:41:14;8.80;99.90
41547;DHT22;27271;45.412;10.852;2022-12-17T13:44:43;8.90;99.90
41547;DHT22;27271;45.412;10.852;2022-12-17T13:48:22;8.90;99.90
41547;DHT22;27271;45.412;10.852;2022-12-17T13:52:17;8.90;99.90
41547;DHT22;27271;45.412;10.852;2022-12-17T13:55:48;8.70;99.90
41547;DHT22;27271;45.412;10.852;2022-12-17T13:59:22;8.80;99.90
41547;DHT22;27271;45.412;10.852;2022-12-17T14:02:51;8.80;99.90
41547;DHT22;27271;45.412;10.852;2022-12-17T14:06:15;8.70;99.90
41547;DHT22;27271;45.412;10.852;2022-12-17T14:09:42;8.70;99.90
41547;DHT22;27271;45.412;10.852;2022-12-17T14:13:12;8.60;99.90
41547;DHT22;27271;45.412;10.852;2022-12-17T14:16:39;8.70;99.90
41547;DHT22;27271;45.412;10.852;2022-12-17T14:20:22;8.70;99.90
41547;DHT22;27271;45.412;10.852;2022-12-17T14:23:47;8.70;99.90
41547;DHT22;27271;45.412;10.852;2022-12-17T14:27:31;8.70;99.90
41547;DHT22;27271;45.412;10.852;2022-12-17T14:31:14;8.70;99.90
41547;DHT22;27271;45.412;10.852;2022-12-17T14:34:55;8.80;99.90
41547;DHT22;27271;45.412;10.852;2022-12-17T14:38:22;8.80;99.90
41547;DHT22;27271;45.412;10.852;2022-12-17T14:42:12;8.80;99.90
41547;DHT22;27271;45.412;10.852;2022-12-17T14:46:02;8.80;99.90
41547;DHT22;27271;45.412;10.852;2022-12-17T14:53:32;8.70;99.90
41547;DHT22;27271;45.412;10.852;2022-12-17T14:56:57;8.70;99.90
41547;DHT22;27271;45.412;10.852;2022-12-17T15:00:24;8.70;99.90
41547;DHT22;27271;45.412;10.852;2022-12-17T15:03:50;8.60;99.90
41547;DHT22;27271;45.412;10.852;2022-12-17T15:07:18;8.30;99.90
41547;DHT22;27271;45.412;10.852;2022-12-17T15:10:43;8.10;99.90
41547;DHT22;27271;45.412;10.852;2022-12-17T15:14:09;7.90;99.90
41547;DHT22;27271;45.412;10.852;2022-12-17T15:17:32;7.60;99.90
41547;DHT22;27271;45.412;10.852;2022-12-17T15:21:02;7.40;99.90
41547;DHT22;27271;45.412;10.852;2022-12-17T15:24:26;7.20;99.90
41547;DHT22;27271;45.412;10.852;2022-12-17T15:27:49;7.00;99.90
41547;DHT22;27271;45.412;10.852;2022-12-17T15:31:13;6.90;99.90
41547;DHT22;27271;45.412;10.852;2022-12-17T15:34:45;6.70;99.90
41547;DHT22;27271;45.412;10.852;2022-12-17T15:38:08;6.60;99.90
41547;DHT22;27271;45.412;10.852;2022-12-17T15:41:31;6.40;99.90
41547;DHT22;27271;45.412;10.852;2022-12-17T15:45:13;6.30;99.90
41547;DHT22;27271;45.412;10.852;2022-12-17T15:48:38;6.10;99.90
41547;DHT22;27271;45.412;10.852;2022-12-17T15:52:11;5.90;99.90
41547;DHT22;27271;45.412;10.852;2022-12-17T15:55:36;5.70;99.90
41547;DHT22;27271;45.412;10.852;2022-12-17T15:59:03;5.60;99.90
41547;DHT22;27271;45.412;10.852;2022-12-17T16:02:26;5.50;99.90
41547;DHT22;27271;45.412;10.852;2022-12-17T16:05:49;5.50;99.90
41547;DHT22;27271;45.412;10.852;2022-12-17T16:09:12;5.40;99.90
41547;DHT22;27271;45.412;10.852;2022-12-17T16:12:35;5.40;99.90
41547;DHT22;27271;45.412;10.852;2022-12-17T16:15:58;5.40;99.90
41547;DHT22;27271;45.412;10.852;2022-12-17T16:19:25;5.30;99.90
41547;DHT22;27271;45.412;10.852;2022-12-17T16:22:48;5.30;99.90
41547;DHT22;27271;45.412;10.852;2022-12-17T16:26:11;5.20;99.90
41547;DHT22;27271;45.412;10.852;2022-12-17T16:29:34;5.10;99.90
41547;DHT22;27271;45.412;10.852;2022-12-17T16:32:57;5.00;99.90
41547;DHT22;27271;45.412;10.852;2022-12-17T16:36:23;4.90;99.90
41547;DHT22;27271;45.412;10.852;2022-12-17T16:39:46;4.90;99.90
41547;DHT22;27271;45.412;10.852;2022-12-17T16:43:09;4.90;99.90
41547;DHT22;27271;45.412;10.852;2022-12-17T16:46:37;4.80;99.90
41547;DHT22;27271;45.412;10.852;2022-12-17T16:50:00;4.70;99.90
41547;DHT22;27271;45.412;10.852;2022-12-17T16:53:22;4.50;99.90
41547;DHT22;27271;45.412;10.852;2022-12-17T16:56:45;4.40;99.90
41547;DHT22;27271;45.412;10.852;2022-12-17T17:00:08;4.30;99.90
41547;DHT22;27271;45.412;10.852;2022-12-17T17:03:32;4.20;99.90
41547;DHT22;27271;45.412;10.852;2022-12-17T17:06:56;4.20;99.90
41547;DHT22;27271;45.412;10.852;2022-12-17T17:10:18;4.10;99.90
41547;DHT22;27271;45.412;10.852;2022-12-17T17:13:41;4.00;99.90
41547;DHT22;27271;45.412;10.852;2022-12-17T17:17:04;4.00;99.90
41547;DHT22;27271;45.412;10.852;2022-12-17T17:20:27;3.90;99.90
41547;DHT22;27271;45.412;10.852;2022-12-17T17:27:18;3.80;99.90
41547;DHT22;27271;45.412;10.852;2022-12-17T17:30:41;3.70;99.90
41547;DHT22;27271;45.412;10.852;2022-12-17T17:34:09;3.80;99.90
41547;DHT22;27271;45.412;10.852;2022-12-17T17:37:33;3.90;99.90
41547;DHT22;27271;45.412;10.852;2022-12-17T17:40:56;3.80;99.90
41547;DHT22;27271;45.412;10.852;2022-12-17T17:44:19;3.80;99.90
41547;DHT22;27271;45.412;10.852;2022-12-17T17:47:41;3.70;99.90
41547;DHT22;27271;45.412;10.852;2022-12-17T17:51:09;3.60;99.90
41547;DHT22;27271;45.412;10.852;2022-12-17T17:54:32;3.50;99.90
41547;DHT22;27271;45.412;10.852;2022-12-17T17:57:55;3.50;99.90
41547;DHT22;27271;45.412;10.852;2022-12-17T18:01:20;3.40;99.90
41547;DHT22;27271;45.412;10.852;2022-12-17T18:04:43;3.40;99.90
41547;DHT22;27271;45.412;10.852;2022-12-17T18:08:06;3.40;99.90
41547;DHT22;27271;45.412;10.852;2022-12-17T18:11:31;3.30;99.90
41547;DHT22;27271;45.412;10.852;2022-12-17T18:14:54;3.30;99.90
41547;DHT22;27271;45.412;10.852;2022-12-17T18:18:35;3.30;99.90
41547;DHT22;27271;45.412;10.852;2022-12-17T18:21:58;3.20;99.90
41547;DHT22;27271;45.412;10.852;2022-12-17T18:25:24;3.20;99.90
41547;DHT22;27271;45.412;10.852;2022-12-17T18:28:47;3.20;99.90
41547;DHT22;27271;45.412;10.852;2022-12-17T18:32:10;3.10;99.90
41547;DHT22;27271;45.412;10.852;2022-12-17T18:35:33;3.10;99.90
41547;DHT22;27271;45.412;10.852;2022-12-17T18:39:03;3.00;99.90
41547;DHT22;27271;45.412;10.852;2022-12-17T18:42:26;3.00;99.90
41547;DHT22;27271;45.412;10.852;2022-12-17T18:46:08;3.00;99.90
41547;DHT22;27271;45.412;10.852;2022-12-17T18:49:30;2.90;99.90
41547;DHT22;27271;45.412;10.852;2022-12-17T18:52:52;2.90;99.90
41547;DHT22;27271;45.412;10.852;2022-12-17T18:56:15;2.90;99.90
41547;DHT22;27271;45.412;10.852;2022-12-17T18:59:57;2.80;99.90
41547;DHT22;27271;45.412;10.852;2022-12-17T19:03:22;2.70;99.90
41547;DHT22;27271;45.412;10.852;2022-12-17T19:06:47;2.70;99.90
41547;DHT22;27271;45.412;10.852;2022-12-17T19:10:10;2.70;99.90
41547;DHT22;27271;45.412;10.852;2022-12-17T19:13:33;2.70;99.90
41547;DHT22;27271;45.412;10.852;2022-12-17T19:16:56;2.70;99.90
41547;DHT22;27271;45.412;10.852;2022-12-17T19:20:19;2.70;99.90
41547;DHT22;27271;45.412;10.852;2022-12-17T19:23:41;2.70;99.90
41547;DHT22;27271;45.412;10.852;2022-12-17T19:27:04;2.70;99.90
41547;DHT22;27271;45.412;10.852;2022-12-17T19:30:26;2.70;99.90
41547;DHT22;27271;45.412;10.852;2022-12-17T19:33:53;2.70;99.90
41547;DHT22;27271;45.412;10.852;2022-12-17T19:37:16;2.70;99.90
41547;DHT22;27271;45.412;10.852;2022-12-17T19:40:39;2.60;99.90
41547;DHT22;27271;45.412;10.852;2022-12-17T19:44:04;2.60;99.90
41547;DHT22;27271;45.412;10.852;2022-12-17T19:47:27;2.50;99.90
41547;DHT22;27271;45.412;10.852;2022-12-17T19:50:55;2.50;99.90
41547;DHT22;27271;45.412;10.852;2022-12-17T19:54:22;2.40;99.90
41547;DHT22;27271;45.412;10.852;2022-12-17T19:57:46;2.40;99.90
41547;DHT22;27271;45.412;10.852;2022-12-17T20:01:14;2.50;99.90
41547;DHT22;27271;45.412;10.852;2022-12-17T20:04:38;2.50;99.90
41547;DHT22;27271;45.412;10.852;2022-12-17T20:08:01;2.40;99.90
41547;DHT22;27271;45.412;10.852;2022-12-17T20:11:24;2.40;99.90
41547;DHT22;27271;45.412;10.852;2022-12-17T20:14:57;2.30;99.90
41547;DHT22;27271;45.412;10.852;2022-12-17T20:18:19;2.30;99.90
41547;DHT22;27271;45.412;10.852;2022-12-17T20:21:42;2.20;99.90
41547;DHT22;27271;45.412;10.852;2022-12-17T20:25:05;2.10;99.90
41547;DHT22;27271;45.412;10.852;2022-12-17T20:28:30;2.00;99.90
41547;DHT22;27271;45.412;10.852;2022-12-17T20:31:53;1.90;99.90
41547;DHT22;27271;45.412;10.852;2022-12-17T20:35:17;1.90;99.90
41547;DHT22;27271;45.412;10.852;2022-12-17T20:38:42;1.80;99.90
41547;DHT22;27271;45.412;10.852;2022-12-17T20:42:05;1.80;99.90
41547;DHT22;27271;45.412;10.852;2022-12-17T20:45:29;1.70;99.90
41547;DHT22;27271;45.412;10.852;2022-12-17T20:48:51;1.70;99.90
41547;DHT22;27271;45.412;10.852;2022-12-17T20:52:18;1.70;99.90
41547;DHT22;27271;45.412;10.852;2022-12-17T20:55:41;1.70;99.90
41547;DHT22;27271;45.412;10.852;2022-12-17T20:59:07;1.70;99.90
41547;DHT22;27271;45.412;10.852;2022-12-17T21:02:30;1.60;99.90
41547;DHT22;27271;45.412;10.852;2022-12-17T21:05:54;1.60;99.90
41547;DHT22;27271;45.412;10.852;2022-12-17T21:09:18;1.50;99.90
41547;DHT22;27271;45.412;10.852;2022-12-17T21:12:42;1.50;99.90
41547;DHT22;27271;45.412;10.852;2022-12-17T21:16:27;1.50;99.90
41547;DHT22;27271;45.412;10.852;2022-12-17T21:19:50;1.50;99.90
41547;DHT22;27271;45.412;10.852;2022-12-17T21:23:13;1.50;99.90
41547;DHT22;27271;45.412;10.852;2022-12-17T21:26:37;1.50;99.90
41547;DHT22;27271;45.412;10.852;2022-12-17T21:30:00;1.50;99.90
41547;DHT22;27271;45.412;10.852;2022-12-17T21:33:34;1.40;99.90
41547;DHT22;27271;45.412;10.852;2022-12-17T21:36:59;1.40;99.90
41547;DHT22;27271;45.412;10.852;2022-12-17T21:40:22;1.50;99.90
41547;DHT22;27271;45.412;10.852;2022-12-17T21:43:45;1.40;99.90
41547;DHT22;27271;45.412;10.852;2022-12-17T21:47:09;1.50;99.90
41547;DHT22;27271;45.412;10.852;2022-12-17T21:50:32;1.40;99.90
41547;DHT22;27271;45.412;10.852;2022-12-17T21:53:57;1.50;99.90
41547;DHT22;27271;45.412;10.852;2022-12-17T21:57:20;1.50;99.90
41547;DHT22;27271;45.412;10.852;2022-12-17T22:00:44;1.40;99.90
41547;DHT22;27271;45.412;10.852;2022-12-17T22:04:07;1.40;99.90
41547;DHT22;27271;45.412;10.852;2022-12-17T22:07:34;1.40;99.90
41547;DHT22;27271;45.412;10.852;2022-12-17T22:11:14;1.40;99.90
41547;DHT22;27271;45.412;10.852;2022-12-17T22:14:41;1.40;99.90
41547;DHT22;27271;45.412;10.852;2022-12-17T22:18:12;1.40;99.90
41547;DHT22;27271;45.412;10.852;2022-12-17T22:21:40;1.40;99.90
41547;DHT22;27271;45.412;10.852;2022-12-17T22:25:04;1.50;99.90
41547;DHT22;27271;45.412;10.852;2022-12-17T22:28:36;1.70;99.90
41547;DHT22;27271;45.412;10.852;2022-12-17T22:32:28;1.80;99.90
41547;DHT22;27271;45.412;10.852;2022-12-17T22:36:14;2.00;99.90
41547;DHT22;27271;45.412;10.852;2022-12-17T22:39:57;2.20;99.90
41547;DHT22;27271;45.412;10.852;2022-12-17T22:43:45;2.30;99.90
41547;DHT22;27271;45.412;10.852;2022-12-17T22:47:31;2.40;99.90
41547;DHT22;27271;45.412;10.852;2022-12-17T22:50:54;2.50;99.90
41547;DHT22;27271;45.412;10.852;2022-12-17T22:54:36;2.50;99.90
41547;DHT22;27271;45.412;10.852;2022-12-17T22:58:02;2.50;99.90
41547;DHT22;27271;45.412;10.852;2022-12-17T23:01:35;2.50;99.90
41547;DHT22;27271;45.412;10.852;2022-12-17T23:04:58;2.40;99.90
41547;DHT22;27271;45.412;10.852;2022-12-17T23:08:26;2.50;99.90
41547;DHT22;27271;45.412;10.852;2022-12-17T23:11:50;2.50;99.90
41547;DHT22;27271;45.412;10.852;2022-12-17T23:15:13;2.50;99.90
41547;DHT22;27271;45.412;10.852;2022-12-17T23:18:40;2.50;99.90
41547;DHT22;27271;45.412;10.852;2022-12-17T23:22:02;2.50;99.90
41547;DHT22;27271;45.412;10.852;2022-12-17T23:25:25;2.50;99.90
41547;DHT22;27271;45.412;10.852;2022-12-17T23:29:01;2.50;99.90
41547;DHT22;27271;45.412;10.852;2022-12-17T23:32:29;2.50;99.90
41547;DHT22;27271;45.412;10.852;2022-12-17T23:36:06;2.70;99.90
41547;DHT22;27271;45.412;10.852;2022-12-17T23:39:29;2.80;99.90
41547;DHT22;27271;45.412;10.852;2022-12-17T23:42:51;2.80;99.90
41547;DHT22;27271;45.412;10.852;2022-12-17T23:46:16;2.90;99.90
41547;DHT22;27271;45.412;10.852;2022-12-17T23:49:42;2.90;99.90
41547;DHT22;27271;45.412;10.852;2022-12-17T23:53:07;2.90;99.90
41547;DHT22;27271;45.412;10.852;2022-12-17T23:56:29;2.90;99.90
41547;DHT22;27271;45.412;10.852;2022-12-17T23:59:51;2.90;99.90
